Date,TemperatureHighF,TemperatureAvgF,TemperatureLowF,DewpointHighF,DewpointAvgF,DewpointLowF,HumidityHigh,HumidityAvg,HumidityLow,PressureMaxIn,PressureMinIn,WindSpeedMaxMPH,WindSpeedAvgMPH,GustSpeedMaxMPH,PrecipitationSumIn
2013-5-1,52.9,37.0,31.3,37.0,33.7,30.0,96,89,42,30.62,29.82,22,6,25,0.12
2013-5-2,52.2,40.1,30.3,36.0,30.7,27.0,96,73,38,30.76,30.50,10,1,13,0.34
2013-5-3,61.1,46.1,32.1,36.0,28.9,24.0,85,55,28,30.50,30.08,6,1,15,0.00
2013-5-4,61.7,44.8,27.5,28.0,24.0,20.0,80,50,22,30.19,30.11,11,2,17,0.00
2013-5-5,65.7,58.7,49.6,29.0,23.9,17.0,39,27,17,30.27,30.11,9,1,11,0.00
2013-5-6,70.9,57.2,41.4,44.0,34.8,24.0,75,45,29,30.13,29.92,12,3,24,0.00
2013-5-7,70.3,57.7,51.0,54.0,48.8,40.0,88,73,56,29.96,29.77,21,6,27,0.00
2013-5-8,75.9,65.2,49.0,53.0,49.2,42.0,94,60,31,29.88,29.80,19,4,26,0.00
2013-5-9,65.2,55.8,48.3,52.0,49.0,45.0,91,78,60,30.07,29.86,13,2,16,0.00
2013-5-10,71.1,57.4,44.1,51.0,45.8,42.0,94,69,38,30.12,30.02,10,1,29,0.06
2013-5-11,68.3,57.2,46.6,48.0,37.0,26.0,90,53,25,30.32,30.10,8,1,14,0.00
2013-5-12,80.3,61.7,44.5,49.0,42.0,33.0,86,52,26,30.19,29.95,8,2,13,0.00
2013-5-13,94.2,73.7,54.5,49.0,43.9,37.0,75,42,15,29.97,29.78,7,1,12,0.00
2013-5-14,98.9,81.6,61.8,51.0,42.6,37.0,49,28,13,29.72,29.53,15,3,19,0.00
2013-5-15,83.6,73.4,58.7,55.0,47.7,42.0,64,42,28,29.69,29.60,21,6,24,0.00
2013-5-16,82.5,66.7,59.0,58.0,53.9,48.0,82,66,33,29.71,29.60,14,4,23,0.08
2013-5-17,84.9,71.6,56.5,64.0,57.7,53.0,91,65,34,29.77,29.61,22,8,28,0.00
2013-5-18,83.5,70.7,61.1,67.0,62.2,52.0,90,75,55,29.65,29.43,17,5,26,0.00
2013-5-19,72.3,62.6,54.6,55.0,51.7,46.0,91,69,48,29.61,29.54,20,6,28,0.10
2013-5-20,68.5,59.1,53.5,52.0,47.8,44.0,89,68,42,29.77,29.61,22,12,35,0.00
2013-5-21,68.4,57.7,50.1,47.0,44.3,41.0,83,63,40,29.84,29.73,19,8,32,0.00
2013-5-22,74.1,58.7,42.3,49.0,45.8,40.0,93,66,38,29.97,29.83,11,2,15,0.00
2013-5-23,70.1,57.8,47.9,52.0,48.7,45.0,91,73,51,30.12,30.00,16,5,25,0.02
2013-5-24,84.4,67.1,55.7,66.0,56.8,51.0,92,72,39,30.07,29.73,25,10,32,0.00
2013-5-25,91.9,73.8,61.0,66.0,54.1,-99.9,88,55,31,29.86,29.61,22,-13,34,0.05
2013-5-26,93.4,77.7,63.8,63.0,57.2,46.0,93,56,21,29.71,29.52,19,8,27,0.00
2013-5-27,78.6,70.1,61.6,67.0,61.6,49.0,94,75,51,29.57,29.44,17,4,21,0.00
2013-5-28,84.6,69.5,54.7,66.0,58.1,51.0,95,70,35,29.64,29.40,24,5,31,0.00
2013-5-29,85.7,66.8,54.6,66.0,57.2,49.0,92,74,41,29.47,29.16,22,5,28,0.60
2013-5-30,75.6,61.9,52.1,53.0,49.2,39.0,95,67,28,29.62,29.45,24,6,33,0.13
2013-5-31,77.9,64.4,49.8,49.0,42.1,30.0,87,51,18,29.80,29.62,26,8,37,0.02